Back to Top

Language: 

My Weather Underground Personal Weather Station Historical Data with Graphs...

Delerius Weather Station Historical Data
Daily Summary for July 23, 2017 Units:  English    Metric   Both
« Previous Day
Next Day »
Daily Weekly Monthly Yearly Custom
  High: Low: Average:
Temperature: 69.1 °F 50.9 °F 59.3 °F
Dew Point: 57.4 °F 50.0 °F 54.2 °F
Humidity: 98 % 58 % 85 %
Wind Speed: 10.0 mph 0.0 mph 4.4 mph
Wind Gust: 22.0 mph - -
Wind:- - WNW
Pressure: 29.84 in 29.78 in -
Precipitation: 0.10 in    
Historical Graphs
 
 
Tabular Data for July 23, 2017
Time Temperature Dew Point Pressure Wind Wind Speed Wind Gust Humidity Rainfall Rate (Hourly) solar Conditions
00:02 54.5 °F 53.1 °F 29.78 in Calm   3.0 mph 95 % 0.00 in 0 W/m2
00:07 54.5 °F 53.4 °F 29.78 in Calm   4.0 mph 96 % 0.00 in 0 W/m2
00:12 54.3 °F 52.9 °F 29.78 in East 1.0 mph 4.0 mph 95 % 0.00 in 0 W/m2
00:17 54.3 °F 53.2 °F 29.78 in East 1.0 mph 4.0 mph 96 % 0.00 in 0 W/m2
00:22 54.3 °F 53.2 °F 29.78 in East 1.0 mph 4.0 mph 96 % 0.00 in 0 W/m2
00:27 54.1 °F 53.0 °F 29.78 in Calm   1.0 mph 96 % 0.00 in 0 W/m2
00:32 54.1 °F 53.0 °F 29.78 in Calm     96 % 0.00 in 0 W/m2
00:37 54.1 °F 53.0 °F 29.78 in Calm     96 % 0.00 in 0 W/m2
00:42 54.3 °F 53.2 °F 29.78 in Calm     96 % 0.00 in 0 W/m2
00:47 54.3 °F 53.2 °F 29.78 in Calm     96 % 0.00 in 0 W/m2
00:52 54.1 °F 53.0 °F 29.78 in Calm     96 % 0.00 in 0 W/m2
00:57 54.1 °F 53.0 °F 29.78 in Calm     96 % 0.00 in 0 W/m2
01:02 54.3 °F 53.2 °F 29.78 in Calm     96 % 0.00 in 0 W/m2
01:07 54.5 °F 53.4 °F 29.79 in Calm     96 % 0.00 in 0 W/m2
01:12 54.5 °F 53.4 °F 29.79 in Calm     96 % 0.00 in 0 W/m2
01:17 54.5 °F 53.4 °F 29.79 in Calm     96 % 0.00 in 0 W/m2
01:22 54.5 °F 53.4 °F 29.79 in Calm     96 % 0.00 in 0 W/m2
01:27 54.5 °F 53.4 °F 29.79 in Calm     96 % 0.00 in 0 W/m2
01:32 54.3 °F 53.2 °F 29.79 in Calm     96 % 0.00 in 0 W/m2
01:37 54.3 °F 53.2 °F 29.79 in Calm     96 % 0.00 in 0 W/m2
01:42 54.5 °F 53.4 °F 29.79 in Calm     96 % 0.00 in 0 W/m2
01:47 54.5 °F 53.4 °F 29.79 in Calm   2.0 mph 96 % 0.00 in 0 W/m2
01:52 54.3 °F 53.2 °F 29.79 in Calm   2.0 mph 96 % 0.00 in 0 W/m2
01:57 54.3 °F 53.2 °F 29.79 in Calm   2.0 mph 96 % 0.00 in 0 W/m2
02:02 54.3 °F 53.2 °F 29.79 in Calm   2.0 mph 96 % 0.00 in 0 W/m2
02:08 54.3 °F 53.2 °F 29.79 in Calm   1.0 mph 96 % 0.00 in 0 W/m2
02:12 54.3 °F 53.2 °F 29.79 in Calm     96 % 0.00 in 0 W/m2
02:18 54.3 °F 53.2 °F 29.79 in Calm     96 % 0.00 in 0 W/m2
02:23 54.3 °F 53.2 °F 29.79 in Calm   2.0 mph 96 % 0.00 in 0 W/m2
02:28 54.3 °F 53.2 °F 29.79 in Calm   2.0 mph 96 % 0.00 in 0 W/m2
02:33 54.1 °F 53.0 °F 29.79 in Calm   2.0 mph 96 % 0.00 in 0 W/m2
02:38 54.1 °F 53.0 °F 29.79 in Calm   2.0 mph 96 % 0.00 in 0 W/m2
02:43 54.1 °F 53.0 °F 29.79 in Calm   2.0 mph 96 % 0.00 in 0 W/m2
02:48 54.0 °F 52.8 °F 29.79 in Calm     96 % 0.00 in 0 W/m2
02:49 54.0 °F 52.8 °F 29.79 in Calm     96 % 0.00 in 0 W/m2
02:54 54.0 °F 52.8 °F 29.79 in Calm     96 % 0.00 in 0 W/m2
02:57 53.8 °F 52.7 °F 29.79 in Calm     96 % 0.00 in 0 W/m2
03:02 53.8 °F 52.7 °F 29.79 in Calm     96 % 0.00 in 0 W/m2
03:07 53.8 °F 52.7 °F 29.79 in Calm     96 % 0.00 in 0 W/m2
03:12 53.8 °F 52.7 °F 29.79 in Calm     96 % 0.00 in 0 W/m2
03:17 53.6 °F 52.5 °F 29.79 in Calm     96 % 0.00 in 0 W/m2
03:22 53.4 °F 52.3 °F 29.79 in Calm     96 % 0.00 in 0 W/m2
03:27 53.2 °F 52.1 °F 29.79 in Calm     96 % 0.00 in 0 W/m2
03:32 53.2 °F 52.1 °F 29.79 in Calm     96 % 0.00 in 0 W/m2
03:37 53.1 °F 52.0 °F 29.79 in Calm     96 % 0.00 in 0 W/m2
03:42 52.9 °F 51.8 °F 29.78 in Calm     96 % 0.00 in 0 W/m2
03:47 52.9 °F 51.8 °F 29.79 in Calm     96 % 0.00 in 0 W/m2
03:52 52.9 °F 51.8 °F 29.79 in Calm     96 % 0.00 in 0 W/m2
03:57 52.9 °F 51.8 °F 29.78 in Calm     96 % 0.00 in 0 W/m2
04:02 52.7 °F 51.6 °F 29.78 in Calm     96 % 0.00 in 0 W/m2
04:07 52.5 °F 51.4 °F 29.79 in Calm     96 % 0.00 in 0 W/m2
04:12 52.5 °F 51.4 °F 29.79 in Calm     96 % 0.00 in 0 W/m2
04:17 52.3 °F 51.2 °F 29.79 in Calm     96 % 0.00 in 0 W/m2
04:22 52.3 °F 51.2 °F 29.79 in Calm     96 % 0.00 in 0 W/m2
04:27 52.2 °F 51.1 °F 29.79 in Calm     96 % 0.00 in 0 W/m2
04:32 51.8 °F 50.7 °F 29.79 in Calm     96 % 0.00 in 0 W/m2
04:37 51.6 °F 50.5 °F 29.79 in Calm     96 % 0.00 in 0 W/m2
04:42 51.4 °F 50.3 °F 29.79 in Calm     96 % 0.00 in 0 W/m2
04:47 51.3 °F 50.2 °F 29.79 in Calm     96 % 0.00 in 0 W/m2
04:52 51.1 °F 50.0 °F 29.80 in Calm     96 % 0.00 in 0 W/m2
04:54 51.1 °F 50.0 °F 29.79 in Calm     96 % 0.00 in 0 W/m2
04:59 51.1 °F 50.0 °F 29.79 in Calm     96 % 0.00 in 0 W/m2
05:04 51.3 °F 50.2 °F 29.79 in Calm     96 % 0.00 in 0 W/m2
05:09 51.3 °F 50.4 °F 29.80 in Calm     97 % 0.00 in 0 W/m2
05:14 51.3 °F 50.2 °F 29.80 in Calm     96 % 0.00 in 0 W/m2
05:19 51.1 °F 50.0 °F 29.80 in Calm     96 % 0.00 in 5 W/m2
05:24 51.1 °F 50.0 °F 29.80 in Calm     96 % 0.00 in 7 W/m2
05:29 51.1 °F 50.0 °F 29.80 in Calm     96 % 0.00 in 9 W/m2
05:34 51.1 °F 50.0 °F 29.80 in Calm   2.0 mph 96 % 0.00 in 14 W/m2
05:39 50.9 °F 50.1 °F 29.80 in Calm   2.0 mph 97 % 0.00 in 19 W/m2
05:44 50.9 °F 50.1 °F 29.80 in Calm     97 % 0.00 in 16 W/m2
05:49 50.9 °F 50.1 °F 29.80 in Calm     97 % 0.00 in 12 W/m2
05:54 51.1 °F 50.3 °F 29.80 in Calm     97 % 0.00 in 14 W/m2
05:59 51.1 °F 50.3 °F 29.81 in Calm     97 % 0.00 in 21 W/m2
06:04 51.3 °F 50.4 °F 29.81 in Calm     97 % 0.00 in 33 W/m2
06:09 51.3 °F 50.4 °F 29.81 in Calm     97 % 0.00 in 37 W/m2
06:14 51.4 °F 50.6 °F 29.81 in Calm     97 % 0.00 in 51 W/m2
06:19 51.4 °F 50.6 °F 29.81 in Calm     97 % 0.00 in 44 W/m2
06:24 51.6 °F 50.8 °F 29.81 in Calm     97 % 0.00 in 53 W/m2
06:29 51.8 °F 51.0 °F 29.81 in Calm     97 % 0.00 in 53 W/m2
06:34 52.0 °F 51.2 °F 29.81 in Calm     97 % 0.00 in 65 W/m2
06:39 52.5 °F 52.0 °F 29.81 in NNE 1.0 mph 6.0 mph 98 % 0.00 in 74 W/m2
06:44 53.1 °F 52.5 °F 29.81 in North 3.0 mph 7.0 mph 98 % 0.00 in 83 W/m2
06:49 53.4 °F 52.9 °F 29.82 in North 2.0 mph 7.0 mph 98 % 0.00 in 74 W/m2
06:54 53.6 °F 53.0 °F 29.82 in North 1.0 mph 6.0 mph 98 % 0.00 in 62 W/m2
06:59 53.8 °F 53.2 °F 29.82 in North 2.0 mph 5.0 mph 98 % 0.00 in 42 W/m2
07:04 53.8 °F 52.9 °F 29.82 in North 3.0 mph 8.0 mph 97 % 0.00 in 44 W/m2
07:09 53.8 °F 52.9 °F 29.82 in NNE 3.0 mph 8.0 mph 97 % 0.00 in 60 W/m2
07:14 53.8 °F 52.9 °F 29.82 in North 4.0 mph 8.0 mph 97 % 0.00 in 72 W/m2
07:19 54.0 °F 53.1 °F 29.82 in North 5.0 mph 8.0 mph 97 % 0.00 in 69 W/m2
07:24 54.0 °F 53.1 °F 29.82 in North 4.0 mph 8.0 mph 97 % 0.00 in 69 W/m2
07:29 54.0 °F 53.1 °F 29.82 in NNE 4.0 mph 8.0 mph 97 % 0.00 in 62 W/m2
07:34 54.0 °F 53.1 °F 29.82 in NNE 4.0 mph 8.0 mph 97 % 0.00 in 51 W/m2
07:39 54.0 °F 53.1 °F 29.82 in North 5.0 mph 9.0 mph 97 % 0.00 in 47 W/m2
07:44 54.0 °F 53.1 °F 29.82 in North 5.0 mph 9.0 mph 97 % 0.00 in 60 W/m2
07:49 54.1 °F 53.3 °F 29.82 in North 4.0 mph 8.0 mph 97 % 0.00 in 95 W/m2
07:54 54.1 °F 53.3 °F 29.82 in North 3.0 mph 7.0 mph 97 % 0.00 in 134 W/m2
07:59 54.3 °F 53.5 °F 29.82 in North 4.0 mph 8.0 mph 97 % 0.00 in 137 W/m2
08:04 54.5 °F 53.7 °F 29.82 in North 4.0 mph 8.0 mph 97 % 0.00 in 149 W/m2
08:09 54.5 °F 53.7 °F 29.83 in North 4.0 mph 8.0 mph 97 % 0.00 in 139 W/m2
08:14 54.7 °F 53.8 °F 29.83 in North 3.0 mph 7.0 mph 97 % 0.00 in 134 W/m2
08:19 54.9 °F 54.0 °F 29.83 in North 3.0 mph 7.0 mph 97 % 0.00 in 135 W/m2
08:25 55.0 °F 53.9 °F 29.83 in North 2.0 mph 7.0 mph 96 % 0.00 in 120 W/m2
08:30 55.0 °F 54.2 °F 29.83 in NNW 2.0 mph 7.0 mph 97 % 0.00 in 95 W/m2
08:35 55.2 °F 54.1 °F 29.83 in NNW 1.0 mph 5.0 mph 96 % 0.00 in 105 W/m2
08:40 55.2 °F 54.1 °F 29.83 in NNW 1.0 mph 5.0 mph 96 % 0.00 in 162 W/m2
08:41 55.2 °F 54.1 °F 29.83 in NNW 1.0 mph 5.0 mph 96 % 0.00 in 204 W/m2
08:46 55.6 °F 54.5 °F 29.83 in NNW 1.0 mph 4.0 mph 96 % 0.00 in 290 W/m2
08:51 55.9 °F 54.8 °F 29.83 in NNW 1.0 mph 6.0 mph 96 % 0.00 in 148 W/m2
08:56 56.1 °F 55.0 °F 29.83 in NNW 3.0 mph 6.0 mph 96 % 0.00 in 137 W/m2
09:01 56.3 °F 54.9 °F 29.83 in NW 5.0 mph 8.0 mph 95 % 0.00 in 137 W/m2
09:06 56.5 °F 55.1 °F 29.83 in WNW 5.0 mph 8.0 mph 95 % 0.00 in 232 W/m2
09:11 56.8 °F 55.4 °F 29.83 in WNW 4.0 mph 7.0 mph 95 % 0.00 in 487 W/m2
09:16 57.4 °F 56.0 °F 29.83 in NW 2.0 mph 6.0 mph 95 % 0.00 in 267 W/m2
09:21 57.7 °F 55.7 °F 29.83 in NW 2.0 mph 7.0 mph 93 % 0.00 in 383 W/m2
09:26 58.5 °F 56.4 °F 29.83 in NW 3.0 mph 7.0 mph 93 % 0.00 in 455 W/m2
09:32 59.0 °F 56.7 °F 29.83 in WNW 4.0 mph 10.0 mph 92 % 0.00 in 763 W/m2
09:36 59.5 °F 56.0 °F 29.83 in NW 5.0 mph 10.0 mph 88 % 0.00 in 679 W/m2
09:42 60.3 °F 56.1 °F 29.83 in NW 3.0 mph 8.0 mph 86 % 0.00 in 698 W/m2
09:47 61.0 °F 56.1 °F 29.83 in WNW 3.0 mph 8.0 mph 84 % 0.00 in 701 W/m2
09:52 61.5 °F 56.0 °F 29.83 in WNW 4.0 mph 9.0 mph 82 % 0.00 in 677 W/m2
09:57 61.9 °F 55.3 °F 29.83 in NW 4.0 mph 9.0 mph 79 % 0.00 in 163 W/m2
10:02 62.1 °F 55.5 °F 29.83 in NW 5.0 mph 9.0 mph 79 % 0.00 in 789 W/m2
10:07 62.1 °F 54.4 °F 29.83 in NNW 5.0 mph 10.0 mph 76 % 0.00 in 301 W/m2
10:12 62.1 °F 54.4 °F 29.83 in NW 6.0 mph 11.0 mph 76 % 0.00 in 478 W/m2
10:17 62.2 °F 54.6 °F 29.83 in WNW 5.0 mph 11.0 mph 76 % 0.00 in 775 W/m2
10:22 62.6 °F 54.9 °F 29.83 in WNW 4.0 mph 8.0 mph 76 % 0.00 in 172 W/m2
10:27 62.8 °F 55.1 °F 29.83 in WNW 4.0 mph 8.0 mph 76 % 0.00 in 872 W/m2
10:32 63.1 °F 55.1 °F 29.83 in WNW 2.0 mph 9.0 mph 75 % 0.00 in 951 W/m2
10:37 63.9 °F 55.0 °F 29.83 in NW 4.0 mph 11.0 mph 73 % 0.00 in 243 W/m2
10:42 63.9 °F 54.7 °F 29.83 in NW 6.0 mph 11.0 mph 72 % 0.00 in 230 W/m2
10:47 64.2 °F 54.6 °F 29.83 in NW 5.0 mph 9.0 mph 71 % 0.00 in 793 W/m2
10:52 64.4 °F 54.0 °F 29.83 in NNW 4.0 mph 9.0 mph 69 % 0.00 in 800 W/m2
10:57 64.8 °F 54.7 °F 29.83 in NW 5.0 mph 10.0 mph 70 % 0.00 in 821 W/m2
11:02 64.9 °F 54.9 °F 29.83 in WNW 7.0 mph 10.0 mph 70 % 0.00 in 874 W/m2
11:07 64.9 °F 53.3 °F 29.83 in West 6.0 mph 10.0 mph 66 % 0.00 in 281 W/m2
11:12 64.9 °F 53.7 °F 29.83 in West 5.0 mph 9.0 mph 67 % 0.00 in 239 W/m2
11:17 64.9 °F 54.1 °F 29.83 in West 4.0 mph 11.0 mph 68 % 0.00 in 1083 W/m2
11:22 65.3 °F 54.1 °F 29.83 in WNW 5.0 mph 11.0 mph 67 % 0.00 in 334 W/m2
11:27 65.7 °F 54.4 °F 29.83 in NW 6.0 mph 10.0 mph 67 % 0.00 in 554 W/m2
11:32 65.7 °F 53.1 °F 29.83 in NW 7.0 mph 12.0 mph 64 % 0.00 in 459 W/m2
11:37 65.7 °F 53.6 °F 29.83 in NW 6.0 mph 12.0 mph 65 % 0.00 in 334 W/m2
11:42 65.7 °F 53.6 °F 29.83 in NNW 4.0 mph 10.0 mph 65 % 0.00 in 267 W/m2
11:47 65.5 °F 53.4 °F 29.83 in NNW 5.0 mph 11.0 mph 65 % 0.00 in 301 W/m2
11:52 65.1 °F 53.5 °F 29.84 in NW 6.0 mph 12.0 mph 66 % 0.00 in 336 W/m2
11:57 65.1 °F 53.5 °F 29.84 in NW 5.0 mph 12.0 mph 66 % 0.00 in 362 W/m2
12:02 65.3 °F 54.1 °F 29.84 in NW 4.0 mph 9.0 mph 67 % 0.00 in 401 W/m2
12:07 65.5 °F 53.8 °F 29.83 in NW 6.0 mph 11.0 mph 66 % 0.00 in 383 W/m2
12:12 65.5 °F 53.4 °F 29.83 in NW 6.0 mph 11.0 mph 65 % 0.00 in 513 W/m2
12:17 65.8 °F 54.6 °F 29.83 in NW 6.0 mph 12.0 mph 67 % 0.00 in 469 W/m2
12:22 66.0 °F 53.5 °F 29.84 in WNW 7.0 mph 14.0 mph 64 % 0.00 in 302 W/m2
12:27 65.8 °F 54.2 °F 29.84 in WNW 9.0 mph 14.0 mph 66 % 0.00 in 302 W/m2
12:32 65.7 °F 53.6 °F 29.83 in WNW 8.0 mph 14.0 mph 65 % 0.00 in 265 W/m2
12:37 65.5 °F 53.4 °F 29.84 in WNW 7.0 mph 12.0 mph 65 % 0.00 in 283 W/m2
12:42 65.3 °F 53.6 °F 29.84 in WNW 7.0 mph 11.0 mph 66 % 0.00 in 276 W/m2
12:47 65.3 °F 53.2 °F 29.83 in NW 6.0 mph 11.0 mph 65 % 0.00 in 272 W/m2
12:52 65.1 °F 53.5 °F 29.84 in NW 6.0 mph 11.0 mph 66 % 0.00 in 329 W/m2
12:57 65.3 °F 54.1 °F 29.83 in NW 5.0 mph 10.0 mph 67 % 0.00 in 367 W/m2
13:02 65.5 °F 54.2 °F 29.83 in NW 6.0 mph 10.0 mph 67 % 0.00 in 422 W/m2
13:07 65.7 °F 54.0 °F 29.83 in WNW 6.0 mph 12.0 mph 66 % 0.00 in 439 W/m2
13:13 66.0 °F 54.3 °F 29.83 in WNW 6.0 mph 12.0 mph 66 % 0.00 in 619 W/m2
13:18 66.4 °F 54.3 °F 29.83 in NW 7.0 mph 11.0 mph 65 % 0.00 in 860 W/m2
13:23 66.9 °F 53.9 °F 29.83 in WNW 7.0 mph 11.0 mph 63 % 0.00 in 842 W/m2
13:28 67.6 °F 54.6 °F 29.83 in WNW 7.0 mph 12.0 mph 63 % 0.00 in 958 W/m2
13:33 67.8 °F 54.3 °F 29.83 in NW 5.0 mph 12.0 mph 62 % 0.00 in 174 W/m2
13:38 67.6 °F 55.5 °F 29.84 in NW 5.0 mph 12.0 mph 65 % 0.00 in 113 W/m2
13:43 66.9 °F 55.6 °F 29.84 in NW 6.0 mph 12.0 mph 67 % 0.00 in 120 W/m2
13:48 66.4 °F 55.5 °F 29.84 in NW 5.0 mph 10.0 mph 68 % 0.00 in 155 W/m2
13:53 65.8 °F 55.0 °F 29.84 in WNW 5.0 mph 9.0 mph 68 % 0.00 in 183 W/m2
13:58 65.7 °F 54.8 °F 29.84 in WNW 5.0 mph 9.0 mph 68 % 0.00 in 227 W/m2
14:03 65.7 °F 54.8 °F 29.83 in WNW 4.0 mph 8.0 mph 68 % 0.00 in 269 W/m2
14:08 65.7 °F 54.4 °F 29.84 in WNW 4.0 mph 7.0 mph 67 % 0.00 in 408 W/m2
14:13 66.2 °F 54.9 °F 29.83 in NW 4.0 mph 8.0 mph 67 % 0.00 in 1085 W/m2
14:18 66.9 °F 54.3 °F 29.83 in WNW 5.0 mph 9.0 mph 64 % 0.00 in 503 W/m2
14:23 67.6 °F 54.2 °F 29.83 in WNW 6.0 mph 10.0 mph 62 % 0.00 in 1114 W/m2
14:28 68.5 °F 55.0 °F 29.83 in WNW 4.0 mph 10.0 mph 62 % 0.00 in 388 W/m2
14:33 68.7 °F 54.7 °F 29.83 in NNW 4.0 mph 9.0 mph 61 % 0.00 in 169 W/m2
14:38 68.5 °F 54.1 °F 29.83 in NW 6.0 mph 13.0 mph 60 % 0.00 in 72 W/m2
14:43 68.2 °F 53.8 °F 29.83 in NW 6.0 mph 13.0 mph 60 % 0.00 in 67 W/m2
14:48 67.6 °F 54.2 °F 29.83 in NW 6.0 mph 14.0 mph 62 % 0.00 in 76 W/m2
14:53 67.3 °F 54.3 °F 29.84 in NW 7.0 mph 14.0 mph 63 % 0.00 in 102 W/m2
14:58 66.7 °F 54.2 °F 29.84 in NW 6.0 mph 11.0 mph 64 % 0.00 in 148 W/m2
15:03 66.6 °F 54.4 °F 29.83 in NW 6.0 mph 10.0 mph 65 % 0.00 in 206 W/m2
15:08 66.4 °F 53.8 °F 29.83 in WNW 6.0 mph 11.0 mph 64 % 0.00 in 306 W/m2
15:13 66.4 °F 53.4 °F 29.83 in WNW 8.0 mph 13.0 mph 63 % 0.00 in 355 W/m2
15:18 66.7 °F 54.2 °F 29.83 in NW 7.0 mph 13.0 mph 64 % 0.00 in 925 W/m2
15:23 67.5 °F 53.5 °F 29.83 in WNW 6.0 mph 11.0 mph 61 % 0.00 in 796 W/m2
15:28 68.5 °F 53.6 °F 29.82 in West 7.0 mph 14.0 mph 59 % 0.00 in 780 W/m2
15:33 69.1 °F 53.7 °F 29.82 in WNW 6.0 mph 14.0 mph 58 % 0.00 in 227 W/m2
15:38 69.1 °F 53.7 °F 29.82 in WNW 6.0 mph 14.0 mph 58 % 0.00 in 178 W/m2
15:43 68.7 °F 53.8 °F 29.82 in WNW 8.0 mph 16.0 mph 59 % 0.00 in 243 W/m2
15:48 68.4 °F 53.9 °F 29.83 in WNW 9.0 mph 16.0 mph 60 % 0.00 in 294 W/m2
15:53 68.2 °F 54.7 °F 29.82 in WNW 8.0 mph 16.0 mph 62 % 0.00 in 295 W/m2
15:58 68.2 °F 54.7 °F 29.82 in WNW 7.0 mph 12.0 mph 62 % 0.00 in 244 W/m2
16:03 68.2 °F 54.7 °F 29.82 in WNW 6.0 mph 11.0 mph 62 % 0.00 in 207 W/m2
16:08 67.8 °F 53.4 °F 29.82 in NW 7.0 mph 14.0 mph 60 % 0.00 in 183 W/m2
16:13 67.3 °F 52.9 °F 29.82 in NNW 9.0 mph 14.0 mph 60 % 0.00 in 183 W/m2
16:18 66.9 °F 53.9 °F 29.82 in NW 9.0 mph 14.0 mph 63 % 0.00 in 214 W/m2
16:23 66.7 °F 54.6 °F 29.82 in NW 9.0 mph 14.0 mph 65 % 0.00 in 181 W/m2
16:28 66.6 °F 54.4 °F 29.83 in NW 8.0 mph 13.0 mph 65 % 0.00 in 214 W/m2
16:33 66.4 °F 54.7 °F 29.83 in NW 7.0 mph 13.0 mph 66 % 0.00 in 223 W/m2
16:38 66.6 °F 54.4 °F 29.82 in NW 6.0 mph 12.0 mph 65 % 0.00 in 243 W/m2
16:43 66.7 °F 55.0 °F 29.82 in WNW 6.0 mph 13.0 mph 66 % 0.00 in 244 W/m2
16:48 66.7 °F 54.6 °F 29.82 in WNW 6.0 mph 13.0 mph 65 % 0.00 in 172 W/m2
16:53 66.9 °F 54.3 °F 29.82 in NW 6.0 mph 13.0 mph 64 % 0.00 in 165 W/m2
16:58 66.9 °F 54.3 °F 29.82 in NW 6.0 mph 13.0 mph 64 % 0.00 in 186 W/m2
17:03 66.7 °F 54.2 °F 29.82 in NW 6.0 mph 12.0 mph 64 % 0.00 in 174 W/m2
17:08 66.9 °F 54.3 °F 29.82 in WNW 7.0 mph 12.0 mph 64 % 0.00 in 160 W/m2
17:13 66.9 °F 54.8 °F 29.82 in WNW 7.0 mph 12.0 mph 65 % 0.00 in 151 W/m2
17:18 66.7 °F 55.0 °F 29.82 in WNW 8.0 mph 15.0 mph 66 % 0.00 in 135 W/m2
17:23 66.6 °F 54.8 °F 29.83 in WNW 8.0 mph 15.0 mph 66 % 0.00 in 114 W/m2
17:28 66.4 °F 54.7 °F 29.83 in WNW 8.0 mph 16.0 mph 66 % 0.00 in 97 W/m2
17:33 66.0 °F 53.9 °F 29.83 in WNW 9.0 mph 20.0 mph 65 % 0.00 in 81 W/m2
17:38 65.7 °F 54.0 °F 29.83 in WNW 10.0 mph 20.0 mph 66 % 0.00 in 65 W/m2
17:39 65.7 °F 54.0 °F 29.83 in WNW 9.0 mph 18.0 mph 66 % 0.00 in 62 W/m2
17:44 65.5 °F 54.6 °F 29.83 in NW 8.0 mph 15.0 mph 68 % 0.00 in 46 W/m2
17:49 65.1 °F 55.9 °F 29.83 in NW 8.0 mph 18.0 mph 72 % 0.00 in 47 W/m2
17:54 64.4 °F 55.9 °F 29.83 in NW 9.0 mph 18.0 mph 74 % 0.01 in 54 W/m2
17:59 63.5 °F 56.5 °F 29.83 in NW 8.0 mph 15.0 mph 78 % 0.01 in 58 W/m2
18:00 63.3 °F 56.3 °F 29.83 in NW 8.0 mph 15.0 mph 78 % 0.01 in 60 W/m2
18:05 62.8 °F 56.9 °F 29.83 in NW 6.0 mph 12.0 mph 81 % 0.01 in 65 W/m2
18:10 62.2 °F 57.0 °F 29.83 in NW 6.0 mph 10.0 mph 83 % 0.02 in 69 W/m2
18:15 61.9 °F 57.0 °F 29.83 in NW 6.0 mph 10.0 mph 84 % 0.02 in 70 W/m2
18:20 61.5 °F 57.0 °F 29.83 in NW 5.0 mph 9.0 mph 85 % 0.02 in 72 W/m2
18:25 61.3 °F 56.8 °F 29.83 in NW 4.0 mph 8.0 mph 85 % 0.02 in 77 W/m2
18:30 61.3 °F 57.1 °F 29.83 in NW 4.0 mph 9.0 mph 86 % 0.02 in 86 W/m2
18:35 61.2 °F 56.3 °F 29.84 in NW 6.0 mph 15.0 mph 84 % 0.02 in 83 W/m2
18:40 61.2 °F 56.3 °F 29.84 in NW 7.0 mph 15.0 mph 84 % 0.02 in 77 W/m2
18:45 61.2 °F 56.3 °F 29.84 in NW 7.0 mph 14.0 mph 84 % 0.02 in 79 W/m2
18:50 61.0 °F 55.4 °F 29.84 in WNW 9.0 mph 22.0 mph 82 % 0.02 in 74 W/m2
18:55 60.8 °F 55.3 °F 29.84 in WNW 10.0 mph 22.0 mph 82 % 0.01 in 65 W/m2
19:00 60.6 °F 55.4 °F 29.84 in WNW 8.0 mph 19.0 mph 83 % 0.01 in 54 W/m2
19:05 60.4 °F 55.6 °F 29.84 in NW 8.0 mph 14.0 mph 84 % 0.01 in 47 W/m2
19:10 60.3 °F 55.4 °F 29.84 in NW 7.0 mph 14.0 mph 84 % 0.00 in 44 W/m2
19:15 60.1 °F 55.6 °F 29.84 in WNW 7.0 mph 14.0 mph 85 % 0.00 in 35 W/m2
19:20 60.1 °F 55.9 °F 29.84 in WNW 8.0 mph 13.0 mph 86 % 0.00 in 37 W/m2
19:25 59.7 °F 55.8 °F 29.84 in WNW 9.0 mph 15.0 mph 87 % 0.00 in 44 W/m2
19:30 59.5 °F 55.7 °F 29.84 in WNW 9.0 mph 15.0 mph 87 % 0.01 in 47 W/m2
19:35 59.4 °F 55.8 °F 29.84 in WNW 8.0 mph 13.0 mph 88 % 0.01 in 46 W/m2
19:41 59.2 °F 55.6 °F 29.83 in WNW 8.0 mph 13.0 mph 88 % 0.01 in 39 W/m2
19:46 59.0 °F 55.8 °F 29.83 in WNW 8.0 mph 12.0 mph 89 % 0.02 in 32 W/m2
19:51 58.8 °F 55.6 °F 29.83 in WNW 7.0 mph 12.0 mph 89 % 0.02 in 26 W/m2
19:56 58.6 °F 55.4 °F 29.83 in WNW 7.0 mph 12.0 mph 89 % 0.02 in 25 W/m2
20:01 58.6 °F 55.7 °F 29.83 in WNW 7.0 mph 11.0 mph 90 % 0.02 in 25 W/m2
20:06 58.5 °F 55.5 °F 29.83 in WNW 7.0 mph 13.0 mph 90 % 0.02 in 23 W/m2
20:11 58.5 °F 55.8 °F 29.83 in WNW 8.0 mph 13.0 mph 91 % 0.02 in 19 W/m2
20:16 58.5 °F 55.8 °F 29.83 in WNW 7.0 mph 12.0 mph 91 % 0.02 in 18 W/m2
20:21 58.3 °F 55.7 °F 29.83 in WNW 7.0 mph 11.0 mph 91 % 0.03 in 19 W/m2
20:26 58.3 °F 56.0 °F 29.83 in WNW 7.0 mph 11.0 mph 92 % 0.03 in 18 W/m2
20:31 58.3 °F 56.0 °F 29.83 in WNW 7.0 mph 11.0 mph 92 % 0.02 in 14 W/m2
20:36 58.3 °F 56.0 °F 29.83 in WNW 6.0 mph 11.0 mph 92 % 0.03 in 9 W/m2
20:41 58.3 °F 56.0 °F 29.82 in WNW 6.0 mph 11.0 mph 92 % 0.03 in 7 W/m2
20:46 58.3 °F 56.0 °F 29.82 in WNW 6.0 mph 11.0 mph 92 % 0.02 in 7 W/m2
20:51 58.5 °F 56.1 °F 29.82 in WNW 6.0 mph 12.0 mph 92 % 0.02 in 7 W/m2
20:56 58.5 °F 56.4 °F 29.82 in WNW 6.0 mph 12.0 mph 93 % 0.02 in 5 W/m2
21:01 58.5 °F 56.4 °F 29.82 in WNW 7.0 mph 11.0 mph 93 % 0.02 in 0 W/m2
21:06 58.5 °F 56.4 °F 29.82 in WNW 7.0 mph 11.0 mph 93 % 0.02 in 0 W/m2
21:11 58.5 °F 56.4 °F 29.82 in WNW 8.0 mph 14.0 mph 93 % 0.02 in 0 W/m2
21:16 58.5 °F 56.4 °F 29.81 in WNW 10.0 mph 16.0 mph 93 % 0.02 in 0 W/m2
21:21 58.5 °F 56.4 °F 29.81 in WNW 10.0 mph 16.0 mph 93 % 0.02 in 0 W/m2
21:22 58.5 °F 56.4 °F 29.82 in WNW 10.0 mph 15.0 mph 93 % 0.02 in 0 W/m2
21:27 58.6 °F 56.6 °F 29.81 in WNW 9.0 mph 15.0 mph 93 % 0.02 in 0 W/m2
21:32 58.6 °F 56.6 °F 29.82 in WNW 9.0 mph 14.0 mph 93 % 0.02 in 0 W/m2
21:37 58.6 °F 56.6 °F 29.82 in WNW 9.0 mph 14.0 mph 93 % 0.01 in 0 W/m2
21:43 58.6 °F 56.6 °F 29.82 in WNW 9.0 mph 16.0 mph 93 % 0.01 in 0 W/m2
21:48 58.6 °F 56.6 °F 29.81 in WNW 8.0 mph 16.0 mph 93 % 0.01 in 0 W/m2
21:52 58.8 °F 56.8 °F 29.82 in WNW 8.0 mph 15.0 mph 93 % 0.01 in 0 W/m2
21:58 58.8 °F 56.8 °F 29.82 in WNW 9.0 mph 15.0 mph 93 % 0.01 in 0 W/m2
21:59 58.8 °F 56.8 °F 29.82 in WNW 8.0 mph 15.0 mph 93 % 0.01 in 0 W/m2
22:04 58.8 °F 56.8 °F 29.82 in WNW 8.0 mph 13.0 mph 93 % 0.01 in 0 W/m2
22:09 58.8 °F 56.8 °F 29.82 in WNW 9.0 mph 16.0 mph 93 % 0.01 in 0 W/m2
22:11 58.8 °F 56.8 °F 29.82 in WNW 9.0 mph 16.0 mph 93 % 0.01 in 0 W/m2
22:16 58.8 °F 57.1 °F 29.82 in WNW 9.0 mph 15.0 mph 94 % 0.00 in 0 W/m2
22:21 58.8 °F 57.1 °F 29.82 in WNW 8.0 mph 15.0 mph 94 % 0.01 in 0 W/m2
22:26 58.8 °F 57.1 °F 29.82 in WNW 7.0 mph 14.0 mph 94 % 0.01 in 0 W/m2
22:31 58.8 °F 57.1 °F 29.82 in WNW 8.0 mph 14.0 mph 94 % 0.02 in 0 W/m2
22:36 58.8 °F 57.1 °F 29.82 in WNW 8.0 mph 14.0 mph 94 % 0.02 in 0 W/m2
22:41 58.8 °F 57.1 °F 29.82 in NW 7.0 mph 14.0 mph 94 % 0.02 in 0 W/m2
22:46 58.8 °F 57.1 °F 29.82 in NW 7.0 mph 13.0 mph 94 % 0.02 in 0 W/m2
22:51 58.8 °F 57.1 °F 29.82 in NW 5.0 mph 10.0 mph 94 % 0.02 in 0 W/m2
22:56 58.8 °F 57.1 °F 29.82 in NW 6.0 mph 14.0 mph 94 % 0.02 in 0 W/m2
23:01 58.8 °F 57.4 °F 29.82 in NW 7.0 mph 14.0 mph 95 % 0.02 in 0 W/m2
23:06 58.8 °F 57.4 °F 29.82 in NW 8.0 mph 15.0 mph 95 % 0.02 in 0 W/m2
23:11 58.8 °F 57.4 °F 29.82 in NW 9.0 mph 19.0 mph 95 % 0.02 in 0 W/m2
23:16 58.8 °F 57.4 °F 29.82 in NNW 9.0 mph 19.0 mph 95 % 0.02 in 0 W/m2
23:21 58.8 °F 57.4 °F 29.83 in NNW 8.0 mph 15.0 mph 95 % 0.02 in 0 W/m2
23:26 58.8 °F 57.4 °F 29.83 in NNW 7.0 mph 15.0 mph 95 % 0.02 in 0 W/m2
23:31 58.8 °F 57.4 °F 29.83 in NNW 6.0 mph 15.0 mph 95 % 0.02 in 0 W/m2
23:36 58.6 °F 57.2 °F 29.83 in NNW 7.0 mph 15.0 mph 95 % 0.02 in 0 W/m2
23:41 58.6 °F 57.2 °F 29.83 in NNW 7.0 mph 15.0 mph 95 % 0.02 in 0 W/m2
23:46 58.6 °F 57.2 °F 29.83 in NNW 7.0 mph 16.0 mph 95 % 0.01 in 0 W/m2
23:51 58.5 °F 57.0 °F 29.83 in NNW 8.0 mph 16.0 mph 95 % 0.01 in 0 W/m2
23:56 58.5 °F 57.0 °F 29.83 in NNW 8.0 mph 15.0 mph 95 % 0.02 in 0 W/m2
Delerius-Weather
Compliments of Weather Underground - 2.25 mb

Data updates at regular intervals.